Time,TemperatureF,DewpointF,PressureIn,WindDirection,WindDirectionDegrees,WindSpeedMPH,WindSpeedGustMPH,Humidity,HourlyPrecipIn,Conditions,Clouds,dailyrainin,SoftwareType,DateUTC
2013-05-26 00:02:00,74.0,59.0,30.15,NNE,31,1.0,3.0,59,0.00,,,0.00,,2013-05-26 04:02:00,
2013-05-26 00:12:00,74.0,59.0,30.15,NNE,31,1.0,3.0,59,0.00,,,0.00,,2013-05-26 04:12:00,
2013-05-26 00:23:00,73.0,58.0,30.15,NE,35,1.0,4.0,59,0.00,,,0.00,,2013-05-26 04:23:00,
2013-05-26 00:33:00,74.0,59.0,30.15,NE,35,0.0,3.0,59,0.00,,,0.00,,2013-05-26 04:33:00,
2013-05-26 00:42:00,74.0,59.0,30.15,NE,35,0.0,3.0,59,0.00,,,0.00,,2013-05-26 04:42:00,
2013-05-26 00:52:00,73.0,56.0,30.15,NE,35,0.0,3.0,56,0.00,,,0.00,,2013-05-26 04:52:00,
2013-05-26 01:02:00,73.0,57.0,30.15,NE,45,0.0,5.0,58,0.00,,,0.00,,2013-05-26 05:02:00,
2013-05-26 01:12:00,73.0,57.0,30.15,NE,45,0.0,5.0,58,0.00,,,0.00,,2013-05-26 05:12:00,
2013-05-26 01:22:00,73.0,58.0,30.15,NE,43,0.0,2.0,59,0.00,,,0.00,,2013-05-26 05:22:00,
2013-05-26 01:32:00,73.0,57.0,30.15,NE,47,1.0,5.0,58,0.00,,,0.00,,2013-05-26 05:32:00,
2013-05-26 01:42:00,73.0,57.0,30.15,NE,47,1.0,5.0,58,0.00,,,0.00,,2013-05-26 05:42:00,
2013-05-26 01:52:00,73.0,57.0,30.14,NE,47,0.0,2.0,57,0.00,,,0.00,,2013-05-26 05:52:00,
2013-05-26 02:01:00,72.0,56.0,30.14,NE,40,0.0,2.0,58,0.00,,,0.00,,2013-05-26 06:01:00,
2013-05-26 02:12:00,72.0,56.0,30.14,NE,40,0.0,2.0,58,0.00,,,0.00,,2013-05-26 06:12:00,
2013-05-26 02:22:00,72.0,57.0,30.13,NE,45,0.0,7.0,59,0.00,,,0.00,,2013-05-26 06:22:00,
2013-05-26 02:32:00,72.0,57.0,30.13,ESE,107,0.0,6.0,60,0.00,,,0.00,,2013-05-26 06:32:00,
2013-05-26 02:42:00,72.0,57.0,30.13,ESE,107,0.0,6.0,60,0.00,,,0.00,,2013-05-26 06:42:00,
2013-05-26 02:52:00,72.0,58.0,30.12,East,98,0.0,2.0,62,0.00,,,0.00,,2013-05-26 06:52:00,
2013-05-26 03:01:00,71.0,56.0,30.12,East,97,0.0,3.0,60,0.00,,,0.00,,2013-05-26 07:01:00,
2013-05-26 03:11:00,71.0,56.0,30.12,East,97,0.0,3.0,60,0.00,,,0.00,,2013-05-26 07:11:00,
2013-05-26 03:22:00,71.0,58.0,30.11,East,88,0.0,1.0,63,0.00,,,0.00,,2013-05-26 07:22:00,
2013-05-26 03:32:00,71.0,57.0,30.11,East,93,0.0,6.0,62,0.00,,,0.00,,2013-05-26 07:32:00,
2013-05-26 03:42:00,71.0,57.0,30.11,East,93,0.0,6.0,62,0.00,,,0.00,,2013-05-26 07:42:00,
2013-05-26 03:52:00,71.0,58.0,30.11,East,94,0.0,1.0,63,0.00,,,0.00,,2013-05-26 07:52:00,
2013-05-26 04:01:00,71.0,59.0,30.11,East,98,0.0,7.0,65,0.00,,,0.00,,2013-05-26 08:01:00,
2013-05-26 04:12:00,71.0,59.0,30.11,East,98,0.0,7.0,65,0.00,,,0.00,,2013-05-26 08:12:00,
2013-05-26 04:21:00,70.0,58.0,30.11,East,97,0.0,2.0,65,0.00,,,0.00,,2013-05-26 08:21:00,
2013-05-26 04:32:00,70.0,58.0,30.11,East,100,1.0,6.0,65,0.00,,,0.00,,2013-05-26 08:32:00,
2013-05-26 04:42:00,70.0,58.0,30.11,East,100,1.0,6.0,65,0.00,,,0.00,,2013-05-26 08:42:00,
2013-05-26 04:53:00,70.0,59.0,30.11,ESE,103,0.0,2.0,67,0.00,,,0.00,,2013-05-26 08:53:00,
2013-05-26 05:01:00,70.0,59.0,30.11,ESE,103,0.0,3.0,67,0.00,,,0.00,,2013-05-26 09:01:00,
2013-05-26 05:11:00,70.0,58.0,30.10,ESE,103,0.0,7.0,65,0.00,,,0.00,,2013-05-26 09:11:00,
2013-05-26 05:21:00,70.0,58.0,30.10,ESE,103,0.0,7.0,65,0.00,,,0.00,,2013-05-26 09:21:00,
2013-05-26 05:33:00,70.0,59.0,30.10,East,101,0.0,1.0,67,0.00,,,0.00,,2013-05-26 09:33:00,
2013-05-26 05:42:00,70.0,59.0,30.10,East,101,0.0,1.0,67,0.00,,,0.00,,2013-05-26 09:42:00,
2013-05-26 05:53:00,70.0,59.0,30.11,ESE,104,0.0,6.0,67,0.00,,,0.00,,2013-05-26 09:53:00,
2013-05-26 06:02:00,70.0,58.0,30.11,ESE,104,0.0,3.0,66,0.00,,,0.00,,2013-05-26 10:02:00,
2013-05-26 06:12:00,70.0,58.0,30.11,ESE,104,0.0,3.0,66,0.00,,,0.00,,2013-05-26 10:12:00,
2013-05-26 06:23:00,70.0,59.0,30.11,ESE,104,0.0,6.0,67,0.00,,,0.00,,2013-05-26 10:23:00,
2013-05-26 06:33:00,70.0,58.0,30.11,ESE,105,0.0,5.0,66,0.00,,,0.00,,2013-05-26 10:33:00,
2013-05-26 06:42:00,69.0,58.0,30.12,ESE,105,0.0,0.0,68,0.00,,,0.00,,2013-05-26 10:42:00,
2013-05-26 06:52:00,69.0,58.0,30.12,ESE,105,0.0,0.0,68,0.00,,,0.00,,2013-05-26 10:52:00,
2013-05-26 07:03:00,69.0,59.0,30.12,ESE,105,0.0,0.0,70,0.00,,,0.00,,2013-05-26 11:03:00,
2013-05-26 07:11:00,69.0,59.0,30.12,ESE,105,0.0,0.0,70,0.00,,,0.00,,2013-05-26 11:11:00,
2013-05-26 07:22:00,69.0,59.0,30.13,ESE,105,0.0,0.0,70,0.00,,,0.00,,2013-05-26 11:22:00,
2013-05-26 07:32:00,69.0,59.0,30.13,ESE,105,0.0,0.0,71,0.00,,,0.00,,2013-05-26 11:32:00,
2013-05-26 07:42:00,69.0,59.0,30.13,ESE,105,0.0,0.0,71,0.00,,,0.00,,2013-05-26 11:42:00,
2013-05-26 07:52:00,69.0,60.0,30.14,ESE,105,0.0,0.0,72,0.00,,,0.00,,2013-05-26 11:52:00,
2013-05-26 08:02:00,69.0,60.0,30.14,ESE,105,0.0,0.0,72,0.00,,,0.00,,2013-05-26 12:02:00,
2013-05-26 08:12:00,69.0,60.0,30.14,ESE,105,0.0,0.0,72,0.00,,,0.00,,2013-05-26 12:12:00,
2013-05-26 08:22:00,72.0,60.0,30.14,ESE,105,0.0,2.0,66,0.00,,,0.00,,2013-05-26 12:22:00,
2013-05-26 08:32:00,73.0,60.0,30.14,ESE,105,0.0,0.0,64,0.00,,,0.00,,2013-05-26 12:32:00,
2013-05-26 08:42:00,73.0,60.0,30.14,ESE,105,0.0,0.0,64,0.00,,,0.00,,2013-05-26 12:42:00,
2013-05-26 08:52:00,75.0,61.0,30.15,East,97,0.0,3.0,61,0.00,,,0.00,,2013-05-26 12:52:00,
2013-05-26 09:02:00,75.0,60.0,30.15,East,80,0.0,5.0,60,0.00,,,0.00,,2013-05-26 13:02:00,
2013-05-26 09:11:00,75.0,60.0,30.15,East,80,0.0,5.0,60,0.00,,,0.00,,2013-05-26 13:11:00,
2013-05-26 09:21:00,76.0,60.0,30.16,ENE,69,0.0,2.0,58,0.00,,,0.00,,2013-05-26 13:21:00,
2013-05-26 09:32:00,76.0,60.0,30.16,ENE,64,0.0,3.0,58,0.00,,,0.00,,2013-05-26 13:32:00,
2013-05-26 09:42:00,76.0,60.0,30.16,NE,40,0.0,2.0,58,0.00,,,0.00,,2013-05-26 13:42:00,
2013-05-26 09:52:00,76.0,60.0,30.16,NE,40,0.0,2.0,58,0.00,,,0.00,,2013-05-26 13:52:00,
2013-05-26 10:02:00,77.0,61.0,30.16,East,84,0.0,7.0,58,0.00,,,0.00,,2013-05-26 14:02:00,
2013-05-26 10:11:00,77.0,61.0,30.16,East,84,0.0,7.0,58,0.00,,,0.00,,2013-05-26 14:11:00,
2013-05-26 10:21:00,77.0,62.0,30.17,ENE,60,0.0,4.0,60,0.00,,,0.00,,2013-05-26 14:21:00,
2013-05-26 10:32:00,77.0,62.0,30.17,NNE,23,1.0,5.0,59,0.00,,,0.00,,2013-05-26 14:32:00,
2013-05-26 10:42:00,78.0,62.0,30.17,NNE,33,0.0,2.0,58,0.00,,,0.00,,2013-05-26 14:42:00,
2013-05-26 10:52:00,78.0,62.0,30.17,NNE,33,0.0,2.0,58,0.00,,,0.00,,2013-05-26 14:52:00,
2013-05-26 11:01:00,78.0,62.0,30.17,NE,43,0.0,4.0,57,0.00,,,0.00,,2013-05-26 15:01:00,
2013-05-26 11:12:00,78.0,62.0,30.17,NE,43,0.0,4.0,57,0.00,,,0.00,,2013-05-26 15:12:00,
2013-05-26 11:22:00,78.0,62.0,30.18,North,9,0.0,3.0,57,0.00,,,0.00,,2013-05-26 15:22:00,
2013-05-26 11:33:00,78.0,62.0,30.18,North,9,0.0,5.0,57,0.00,,,0.00,,2013-05-26 15:33:00,
2013-05-26 11:43:00,78.0,62.0,30.18,ENE,60,1.0,5.0,58,0.00,,,0.00,,2013-05-26 15:43:00,
2013-05-26 11:53:00,78.0,62.0,30.18,ENE,60,1.0,5.0,58,0.00,,,0.00,,2013-05-26 15:53:00,
2013-05-26 12:03:00,78.0,62.0,30.18,East,90,1.0,8.0,57,0.00,,,0.00,,2013-05-26 16:03:00,
2013-05-26 12:12:00,79.0,62.0,30.17,East,84,1.0,10.0,56,0.00,,,0.00,,2013-05-26 16:12:00,
2013-05-26 12:23:00,79.0,62.0,30.17,East,84,1.0,10.0,56,0.00,,,0.00,,2013-05-26 16:23:00,
2013-05-26 12:33:00,79.0,61.0,30.17,East,93,3.0,8.0,55,0.00,,,0.00,,2013-05-26 16:33:00,
2013-05-26 12:42:00,79.0,63.0,30.17,NE,53,1.0,8.0,58,0.00,,,0.00,,2013-05-26 16:42:00,
2013-05-26 12:53:00,79.0,63.0,30.17,NE,53,1.0,8.0,58,0.00,,,0.00,,2013-05-26 16:53:00,
2013-05-26 13:02:00,80.0,63.0,30.17,ENE,74,0.0,8.0,57,0.00,,,0.00,,2013-05-26 17:02:00,
2013-05-26 13:11:00,80.0,63.0,30.17,ENE,74,0.0,8.0,57,0.00,,,0.00,,2013-05-26 17:11:00,
2013-05-26 13:22:00,80.0,63.0,30.17,ENE,77,0.0,8.0,56,0.00,,,0.00,,2013-05-26 17:22:00,
2013-05-26 13:32:00,80.0,63.0,30.17,East,97,0.0,11.0,56,0.00,,,0.00,,2013-05-26 17:32:00,
2013-05-26 13:42:00,80.0,63.0,30.16,East,86,0.0,9.0,56,0.00,,,0.00,,2013-05-26 17:42:00,
2013-05-26 13:52:00,80.0,63.0,30.16,East,86,0.0,9.0,56,0.00,,,0.00,,2013-05-26 17:52:00,
2013-05-26 14:01:00,80.0,63.0,30.16,ENE,62,0.0,6.0,57,0.00,,,0.00,,2013-05-26 18:01:00,
2013-05-26 14:12:00,80.0,63.0,30.16,ENE,62,0.0,6.0,57,0.00,,,0.00,,2013-05-26 18:12:00,
2013-05-26 14:21:00,80.0,61.0,30.16,East,83,1.0,8.0,52,0.00,,,0.00,,2013-05-26 18:21:00,
2013-05-26 14:32:00,80.0,60.0,30.16,East,84,0.0,6.0,51,0.00,,,0.00,,2013-05-26 18:32:00,
2013-05-26 14:42:00,80.0,60.0,30.16,East,79,1.0,7.0,51,0.00,,,0.00,,2013-05-26 18:42:00,
2013-05-26 14:52:00,80.0,60.0,30.16,East,79,1.0,7.0,51,0.00,,,0.00,,2013-05-26 18:52:00,
2013-05-26 15:01:00,81.0,59.0,30.16,East,93,0.0,8.0,48,0.00,,,0.00,,2013-05-26 19:01:00,
2013-05-26 15:11:00,81.0,59.0,30.16,East,93,0.0,8.0,48,0.00,,,0.00,,2013-05-26 19:11:00,
2013-05-26 15:22:00,81.0,61.0,30.15,NE,56,1.0,6.0,51,0.00,,,0.00,,2013-05-26 19:22:00,
2013-05-26 15:32:00,81.0,61.0,30.15,East,83,1.0,7.0,50,0.00,,,0.00,,2013-05-26 19:32:00,
2013-05-26 15:42:00,81.0,61.0,30.15,East,83,1.0,7.0,50,0.00,,,0.00,,2013-05-26 19:42:00,
2013-05-26 15:52:00,80.0,61.0,30.14,NE,47,0.0,6.0,53,0.00,,,0.00,,2013-05-26 19:52:00,
2013-05-26 16:02:00,80.0,60.0,30.14,ENE,59,1.0,5.0,51,0.00,,,0.00,,2013-05-26 20:02:00,
2013-05-26 16:11:00,80.0,60.0,30.14,ENE,59,1.0,5.0,51,0.00,,,0.00,,2013-05-26 20:11:00,
2013-05-26 16:22:00,81.0,61.0,30.14,ENE,70,1.0,6.0,51,0.00,,,0.00,,2013-05-26 20:22:00,
2013-05-26 16:32:00,81.0,61.0,30.14,ENE,77,1.0,7.0,51,0.00,,,0.00,,2013-05-26 20:32:00,
2013-05-26 16:42:00,81.0,61.0,30.13,East,95,1.0,11.0,50,0.00,,,0.00,,2013-05-26 20:42:00,
2013-05-26 16:52:00,81.0,61.0,30.13,East,95,1.0,11.0,50,0.00,,,0.00,,2013-05-26 20:52:00,
2013-05-26 17:02:00,80.0,60.0,30.13,East,98,1.0,10.0,50,0.00,,,0.00,,2013-05-26 21:02:00,
2013-05-26 17:11:00,80.0,60.0,30.13,East,98,1.0,10.0,50,0.00,,,0.00,,2013-05-26 21:11:00,
2013-05-26 17:22:00,81.0,60.0,30.13,East,95,1.0,8.0,49,0.00,,,0.00,,2013-05-26 21:22:00,
2013-05-26 17:33:00,80.0,60.0,30.13,East,101,5.0,8.0,50,0.00,,,0.00,,2013-05-26 21:33:00,
2013-05-26 17:43:00,80.0,60.0,30.13,East,101,5.0,8.0,50,0.00,,,0.00,,2013-05-26 21:43:00,
2013-05-26 17:53:00,80.0,60.0,30.12,East,91,0.0,7.0,51,0.00,,,0.00,,2013-05-26 21:53:00,
2013-05-26 18:03:00,80.0,60.0,30.12,East,87,1.0,5.0,51,0.00,,,0.00,,2013-05-26 22:03:00,
2013-05-26 18:12:00,80.0,60.0,30.12,East,87,1.0,5.0,51,0.00,,,0.00,,2013-05-26 22:12:00,
2013-05-26 18:23:00,79.0,61.0,30.11,East,79,0.0,5.0,54,0.00,,,0.00,,2013-05-26 22:23:00,
2013-05-26 18:33:00,79.0,60.0,30.11,ENE,76,0.0,6.0,52,0.00,,,0.00,,2013-05-26 22:33:00,
2013-05-26 18:42:00,78.0,61.0,30.11,ENE,63,0.0,3.0,55,0.00,,,0.00,,2013-05-26 22:42:00,
2013-05-26 18:53:00,78.0,61.0,30.11,ENE,63,0.0,3.0,55,0.00,,,0.00,,2013-05-26 22:53:00,
2013-05-26 19:02:00,78.0,61.0,30.11,East,86,0.0,8.0,55,0.00,,,0.00,,2013-05-26 23:02:00,
2013-05-26 19:12:00,78.0,61.0,30.11,East,86,0.0,8.0,55,0.00,,,0.00,,2013-05-26 23:12:00,
2013-05-26 19:22:00,78.0,61.0,30.11,East,88,0.0,2.0,55,0.00,,,0.00,,2013-05-26 23:22:00,
2013-05-26 19:32:00,77.0,61.0,30.11,East,97,0.0,6.0,58,0.00,,,0.00,,2013-05-26 23:32:00,
2013-05-26 19:43:00,76.0,61.0,30.11,East,95,0.0,3.0,59,0.00,,,0.00,,2013-05-26 23:43:00,
2013-05-26 19:52:00,76.0,61.0,30.11,East,95,0.0,3.0,59,0.00,,,0.00,,2013-05-26 23:52:00,
2013-05-26 20:02:00,76.0,61.0,30.11,East,97,0.0,7.0,60,0.00,,,0.00,,2013-05-27 00:02:00,
2013-05-26 20:11:00,76.0,61.0,30.11,East,97,0.0,7.0,60,0.00,,,0.00,,2013-05-27 00:11:00,
2013-05-26 20:22:00,75.0,61.0,30.12,East,98,0.0,3.0,62,0.00,,,0.00,,2013-05-27 00:22:00,
2013-05-26 20:32:00,75.0,61.0,30.12,East,97,1.0,2.0,61,0.00,,,0.00,,2013-05-27 00:32:00,
2013-05-26 20:42:00,75.0,61.0,30.12,East,97,0.0,1.0,61,0.00,,,0.00,,2013-05-27 00:42:00,
2013-05-26 20:52:00,75.0,61.0,30.12,East,97,0.0,1.0,61,0.00,,,0.00,,2013-05-27 00:52:00,
2013-05-26 21:01:00,74.0,59.0,30.12,East,95,0.0,1.0,60,0.00,,,0.00,,2013-05-27 01:01:00,
2013-05-26 21:11:00,74.0,59.0,30.12,East,95,0.0,1.0,60,0.00,,,0.00,,2013-05-27 01:11:00,
2013-05-26 21:22:00,74.0,61.0,30.12,East,95,0.0,1.0,64,0.00,,,0.00,,2013-05-27 01:22:00,
2013-05-26 21:32:00,74.0,61.0,30.12,East,95,0.0,0.0,64,0.00,,,0.00,,2013-05-27 01:32:00,
2013-05-26 21:42:00,74.0,61.0,30.13,East,97,1.0,7.0,65,0.00,,,0.00,,2013-05-27 01:42:00,
2013-05-26 21:52:00,74.0,61.0,30.13,East,97,1.0,7.0,65,0.00,,,0.00,,2013-05-27 01:52:00,
2013-05-26 22:02:00,74.0,61.0,30.13,East,97,0.0,3.0,65,0.00,,,0.00,,2013-05-27 02:02:00,
2013-05-26 22:11:00,74.0,61.0,30.13,East,97,0.0,3.0,65,0.00,,,0.00,,2013-05-27 02:11:00,
2013-05-26 22:22:00,74.0,62.0,30.13,East,98,0.0,5.0,66,0.00,,,0.00,,2013-05-27 02:22:00,
2013-05-26 22:32:00,74.0,62.0,30.13,East,97,0.0,3.0,67,0.00,,,0.00,,2013-05-27 02:32:00,
2013-05-26 22:42:00,74.0,62.0,30.13,ESE,104,1.0,8.0,67,0.00,,,0.00,,2013-05-27 02:42:00,
2013-05-26 22:52:00,74.0,62.0,30.13,ESE,104,1.0,8.0,67,0.00,,,0.00,,2013-05-27 02:52:00,
2013-05-26 23:02:00,74.0,62.0,30.13,ESE,104,1.0,7.0,66,0.00,,,0.00,,2013-05-27 03:02:00,
2013-05-26 23:11:00,74.0,62.0,30.13,ESE,104,1.0,7.0,66,0.00,,,0.00,,2013-05-27 03:11:00,
2013-05-26 23:21:00,74.0,61.0,30.13,East,101,1.0,7.0,64,0.00,,,0.00,,2013-05-27 03:21:00,
2013-05-26 23:33:00,74.0,61.0,30.13,East,101,0.0,5.0,65,0.00,,,0.00,,2013-05-27 03:33:00,
2013-05-26 23:43:00,74.0,61.0,30.13,East,101,0.0,5.0,65,0.00,,,0.00,,2013-05-27 03:43:00,
2013-05-26 23:53:00,74.0,61.0,30.14,East,101,1.0,4.0,65,0.00,,,0.00,,2013-05-27 03:53:00,